Time;durP1;ratioP1;P1;durP2;ratioP2;P2;SDS_P1;SDS_P2;PMS_P1;PMS_P2;Temp;Humidity;BMP_temperature;BMP_pressure;BME280_temperature;BME280_humidity;BME280_pressure;Samples;Min_cycle;Max_cycle;Signal;HPM_P1;HPM_P2
2022/04/04 00:00:47;;;;;;;14.07;12.60;;;2.00;99.90;;;;;;5053189;28;20654;-62
2022/04/04 00:03:13;;;;;;;15.67;14.07;;;2.00;99.90;;;;;;5053261;28;20539;-63
2022/04/04 00:05:39;;;;;;;14.77;13.27;;;2.00;99.90;;;;;;5053271;28;20171;-62
2022/04/04 00:08:06;;;;;;;16.73;13.37;;;2.00;99.90;;;;;;5053654;28;20194;-63
2022/04/04 00:10:32;;;;;;;16.67;14.87;;;2.00;99.90;;;;;;5056971;28;20186;-64
2022/04/04 00:12:58;;;;;;;18.50;14.20;;;1.90;99.90;;;;;;5056982;28;20289;-63
2022/04/04 00:15:24;;;;;;;17.20;14.10;;;1.90;99.90;;;;;;5057008;28;20175;-63
2022/04/04 00:17:50;;;;;;;15.27;13.67;;;1.90;99.90;;;;;;5057189;28;20567;-63
2022/04/04 00:20:16;;;;;;;18.03;13.37;;;1.90;99.90;;;;;;5055562;28;20178;-63
2022/04/04 00:22:43;;;;;;;16.67;13.70;;;1.90;99.90;;;;;;5057260;28;20186;-63
2022/04/04 00:25:09;;;;;;;14.20;12.73;;;1.90;99.90;;;;;;5056727;28;20170;-63
2022/04/04 00:27:35;;;;;;;15.87;13.90;;;1.90;99.90;;;;;;5056916;28;20732;-63
2022/04/04 00:30:03;;;;;;;15.23;13.73;;;1.90;99.90;;;;;;5056679;28;20170;-63
2022/04/04 00:32:29;;;;;;;16.07;14.00;;;1.80;99.90;;;;;;5057064;28;20261;-63
2022/04/04 00:34:55;;;;;;;20.10;13.60;;;1.80;99.90;;;;;;5056738;28;20170;-63
2022/04/04 00:37:21;;;;;;;15.37;13.77;;;1.80;99.90;;;;;;5056542;28;20197;-63
2022/04/04 00:39:47;;;;;;;17.27;14.17;;;1.80;99.90;;;;;;5056534;28;20195;-63
2022/04/04 00:42:16;;;;;;;15.53;13.63;;;1.70;99.90;;;;;;5056492;28;20174;-63
2022/04/04 00:44:45;;;;;;;18.77;13.60;;;1.70;99.90;;;;;;5056421;28;20174;-62
2022/04/04 00:47:11;;;;;;;16.57;14.03;;;1.70;99.90;;;;;;5056350;28;20196;-63
2022/04/04 00:49:37;;;;;;;17.27;13.37;;;1.70;99.90;;;;;;5056352;28;20205;-62
2022/04/04 00:52:03;;;;;;;16.57;14.17;;;1.60;99.90;;;;;;5056563;28;20639;-63
2022/04/04 00:54:29;;;;;;;17.03;14.40;;;1.60;99.90;;;;;;5056408;28;20524;-63
2022/04/04 00:56:55;;;;;;;18.77;14.47;;;1.60;99.90;;;;;;5056223;28;20293;-63
2022/04/04 00:59:22;;;;;;;17.00;13.57;;;1.60;99.90;;;;;;5056423;28;20202;-63
2022/04/04 01:01:49;;;;;;;16.90;14.63;;;1.60;99.90;;;;;;5056420;28;20230;-63
2022/04/04 01:04:16;;;;;;;17.63;15.00;;;1.60;99.90;;;;;;5056113;28;20662;-63
2022/04/04 01:06:43;;;;;;;17.60;14.47;;;1.60;99.90;;;;;;5055969;28;20171;-63
2022/04/04 01:09:14;;;;;;;17.27;14.30;;;1.60;99.90;;;;;;5055953;28;20166;-63
2022/04/04 01:12:02;;;;;;;22.77;14.90;;;1.60;99.90;;;;;;5055960;28;20222;-62
2022/04/04 01:14:28;;;;;;;17.87;15.23;;;1.50;99.90;;;;;;5055889;28;20170;-63
2022/04/04 01:16:54;;;;;;;19.07;15.27;;;1.60;99.90;;;;;;5056065;28;20249;-63
2022/04/04 01:19:20;;;;;;;19.67;15.47;;;1.50;99.90;;;;;;5055853;28;20352;-63
2022/04/04 01:21:45;;;;;;;16.63;14.70;;;1.50;99.90;;;;;;5054617;28;20175;-63
2022/04/04 01:24:17;;;;;;;19.93;16.50;;;1.50;99.90;;;;;;5055861;28;20552;-63
2022/04/04 01:26:50;;;;;;;19.20;15.63;;;1.50;99.90;;;;;;5055748;28;20189;-63
2022/04/04 01:29:15;;;;;;;19.37;14.90;;;1.50;99.90;;;;;;5055490;28;20182;-62
2022/04/04 01:31:41;;;;;;;16.47;14.10;;;1.50;99.90;;;;;;5054336;28;20190;-62
2022/04/04 01:34:07;;;;;;;17.93;15.70;;;1.50;99.90;;;;;;5055567;28;20182;-63
2022/04/04 01:36:33;;;;;;;23.00;16.70;;;1.50;99.90;;;;;;5055466;28;20179;-63
2022/04/04 01:38:59;;;;;;;18.43;15.97;;;1.50;99.90;;;;;;5055367;28;20299;-63
2022/04/04 01:41:25;;;;;;;18.50;16.17;;;1.50;99.90;;;;;;5055706;28;20170;-63
2022/04/04 01:43:51;;;;;;;18.83;15.33;;;1.50;99.90;;;;;;5055209;28;20174;-63
2022/04/04 01:46:29;;;;;;;19.70;15.00;;;1.50;99.90;;;;;;5055317;28;20166;-64
2022/04/04 01:48:57;;;;;;;18.00;15.37;;;1.50;99.90;;;;;;5055169;28;20604;-63
2022/04/04 01:51:23;;;;;;;19.13;16.43;;;1.50;99.90;;;;;;5055114;28;20181;-63
2022/04/04 01:53:49;;;;;;;19.90;16.00;;;1.50;99.90;;;;;;5055186;28;20182;-63
2022/04/04 01:56:15;;;;;;;20.23;16.93;;;1.50;99.90;;;;;;5055261;28;20236;-63
2022/04/04 01:58:41;;;;;;;18.83;16.73;;;1.50;99.90;;;;;;5054698;28;20210;-63
2022/04/04 02:01:19;;;;;;;22.10;17.53;;;1.50;99.90;;;;;;5055067;28;20167;-63
2022/04/04 02:03:50;;;;;;;21.30;17.23;;;1.50;99.90;;;;;;5055289;28;20165;-63
2022/04/04 02:06:18;;;;;;;22.70;17.37;;;1.50;99.90;;;;;;5055137;28;20174;-63
2022/04/04 02:08:44;;;;;;;21.73;17.90;;;1.50;99.90;;;;;;5055099;28;20221;-63
2022/04/04 02:11:10;;;;;;;18.47;16.30;;;1.50;99.90;;;;;;5054759;28;20217;-63
2022/04/04 02:13:37;;;;;;;18.57;16.50;;;1.50;99.90;;;;;;5054565;28;20174;-63
2022/04/04 02:16:04;;;;;;;21.10;17.30;;;1.40;99.90;;;;;;5055019;28;20194;-62
2022/04/04 02:18:31;;;;;;;25.27;17.07;;;1.40;99.90;;;;;;5054558;28;20217;-63
2022/04/04 02:20:58;;;;;;;21.27;17.70;;;1.40;99.90;;;;;;5054972;28;20531;-63
2022/04/04 02:23:24;;;;;;;21.53;17.70;;;1.40;99.90;;;;;;5054552;28;20174;-63
2022/04/04 02:25:50;;;;;;;21.67;17.90;;;1.40;99.90;;;;;;5054599;28;20178;-63
2022/04/04 02:28:17;;;;;;;18.63;16.47;;;1.40;99.90;;;;;;5054239;28;20198;-63
2022/04/04 02:30:45;;;;;;;20.73;17.33;;;1.40;99.90;;;;;;5054416;28;20181;-63
2022/04/04 02:33:15;;;;;;;21.57;16.87;;;1.40;99.90;;;;;;5054514;28;20182;-63
2022/04/04 02:35:41;;;;;;;19.70;16.53;;;1.40;99.90;;;;;;5054365;28;20677;-62
2022/04/04 02:38:07;;;;;;;21.73;17.13;;;1.40;99.90;;;;;;5054422;28;20206;-63
2022/04/04 02:40:34;;;;;;;27.23;18.47;;;1.40;99.90;;;;;;5054312;28;20176;-63
2022/04/04 02:43:00;;;;;;;21.07;17.17;;;1.40;99.90;;;;;;5052682;28;20178;-62
2022/04/04 02:45:27;;;;;;;22.37;17.47;;;1.40;99.90;;;;;;5054182;28;20165;-63
2022/04/04 02:47:52;;;;;;;21.50;16.67;;;1.40;99.90;;;;;;5054197;28;20218;-63
2022/04/04 02:50:18;;;;;;;21.77;17.53;;;1.40;99.90;;;;;;5054400;28;20308;-62
2022/04/04 02:52:44;;;;;;;21.93;16.83;;;1.40;99.90;;;;;;5054168;28;20178;-63
2022/04/04 02:57:55;;;;;;;20.70;17.57;;;1.40;99.90;;;;;;5053590;28;20264;-62
2022/04/04 03:00:24;;;;;;;25.03;16.90;;;1.40;99.90;;;;;;5054303;28;20553;-63
2022/04/04 03:02:54;;;;;;;23.67;16.57;;;1.40;99.90;;;;;;5054024;28;20172;-62
2022/04/04 03:05:19;;;;;;;20.30;17.30;;;1.40;99.90;;;;;;5054228;28;20512;-62
2022/04/04 03:07:46;;;;;;;19.80;16.77;;;1.50;99.90;;;;;;5053865;28;20197;-63
2022/04/04 03:10:13;;;;;;;22.07;17.47;;;1.50;99.90;;;;;;5053883;28;20245;-63
2022/04/04 03:12:44;;;;;;;23.07;16.17;;;1.50;99.90;;;;;;5053743;28;20166;-63
2022/04/04 03:15:12;;;;;;;20.90;17.07;;;1.50;99.90;;;;;;5053645;28;20250;-62
2022/04/04 03:17:43;;;;;;;19.30;16.03;;;1.50;99.90;;;;;;5052632;28;20202;-62
2022/04/04 03:20:11;;;;;;;23.70;17.13;;;1.50;99.90;;;;;;5053606;28;20177;-63
2022/04/04 03:22:50;;;;;;;22.20;16.73;;;1.60;99.90;;;;;;5053488;28;20190;-63
2022/04/04 03:25:17;;;;;;;27.43;16.73;;;1.60;99.90;;;;;;5052201;28;20649;-62
2022/04/04 03:27:44;;;;;;;21.13;16.93;;;1.60;99.90;;;;;;5053437;28;20284;-63
2022/04/04 03:30:18;;;;;;;21.03;15.43;;;1.60;99.90;;;;;;5053846;28;20177;-62
2022/04/04 03:32:47;;;;;;;22.40;15.37;;;1.60;99.90;;;;;;5053733;28;20157;-63
2022/04/04 03:35:17;;;;;;;20.73;16.30;;;1.60;99.90;;;;;;5053426;28;20169;-63
2022/04/04 03:37:45;;;;;;;21.67;16.10;;;1.70;99.90;;;;;;5053422;28;20269;-63
2022/04/04 03:40:13;;;;;;;19.03;16.70;;;1.70;99.90;;;;;;5053499;28;20173;-62
2022/04/04 03:42:43;;;;;;;21.63;17.40;;;1.70;99.90;;;;;;5052974;28;20216;-63
2022/04/04 03:45:11;;;;;;;19.17;16.43;;;1.70;99.90;;;;;;5053163;28;20702;-62
2022/04/04 03:47:38;;;;;;;20.00;15.63;;;1.80;99.90;;;;;;5053421;28;20217;-68
2022/04/04 03:50:05;;;;;;;21.73;16.20;;;1.90;99.90;;;;;;5053505;28;20159;-62
2022/04/04 03:52:31;;;;;;;18.43;15.57;;;2.00;99.90;;;;;;5053250;28;20170;-63
2022/04/04 03:54:57;;;;;;;20.93;15.77;;;2.00;99.90;;;;;;5051999;28;20186;-62
2022/04/04 03:57:23;;;;;;;19.17;16.10;;;2.00;99.90;;;;;;5053135;28;20565;-63
2022/04/04 03:59:48;;;;;;;21.67;15.70;;;2.00;99.90;;;;;;5051586;28;20241;-63
2022/04/04 04:02:14;;;;;;;18.83;14.93;;;2.10;99.90;;;;;;5053079;28;20178;-63
2022/04/04 04:04:40;;;;;;;21.50;16.67;;;2.10;99.90;;;;;;5053096;28;20175;-62
2022/04/04 04:07:10;;;;;;;20.27;15.13;;;2.20;99.90;;;;;;5053205;28;20186;-63
2022/04/04 04:09:36;;;;;;;19.10;15.40;;;2.20;99.90;;;;;;5053159;28;20159;-63
2022/04/04 04:12:03;;;;;;;16.50;14.03;;;2.20;99.90;;;;;;5053271;28;20174;-63
2022/04/04 04:14:28;;;;;;;17.87;14.20;;;2.20;99.90;;;;;;5052978;28;20258;-62
2022/04/04 04:16:54;;;;;;;18.40;14.50;;;2.20;99.90;;;;;;5052940;28;20301;-63
2022/04/04 04:22:04;;;;;;;18.53;14.33;;;2.30;99.90;;;;;;5053060;28;20170;-62
2022/04/04 04:24:30;;;;;;;17.93;14.80;;;2.30;99.90;;;;;;5053183;28;20159;-63
2022/04/04 04:26:56;;;;;;;19.83;15.00;;;2.30;99.90;;;;;;5052773;28;20185;-63
2022/04/04 04:29:21;;;;;;;18.37;15.53;;;2.40;99.90;;;;;;5052653;28;20186;-62
2022/04/04 04:31:47;;;;;;;17.40;14.30;;;2.40;99.90;;;;;;5052775;28;20171;-62
2022/04/04 04:34:13;;;;;;;17.10;14.27;;;2.40;99.90;;;;;;5053329;28;20189;-62
2022/04/04 04:36:39;;;;;;;17.03;14.20;;;2.40;99.90;;;;;;5051473;28;20178;-62
2022/04/04 04:39:09;;;;;;;19.17;14.60;;;2.40;99.90;;;;;;5052746;28;20663;-63
2022/04/04 04:41:35;;;;;;;19.50;14.33;;;2.40;99.90;;;;;;5052703;28;20184;-63
2022/04/04 04:44:03;;;;;;;17.70;14.87;;;2.40;99.90;;;;;;5052422;28;20194;-63
2022/04/04 04:46:33;;;;;;;18.23;14.23;;;2.40;99.90;;;;;;5053074;28;20278;-62
2022/04/04 04:48:59;;;;;;;23.73;14.53;;;2.40;99.90;;;;;;5052597;28;20218;-62
2022/04/04 04:51:26;;;;;;;17.20;14.23;;;2.40;99.90;;;;;;5053041;28;20185;-63
2022/04/04 04:53:52;;;;;;;22.27;14.93;;;2.40;99.90;;;;;;5052494;28;20213;-62
2022/04/04 04:56:18;;;;;;;21.10;14.60;;;2.50;99.90;;;;;;5055786;28;20596;-63
2022/04/04 04:58:43;;;;;;;19.13;15.67;;;2.40;99.90;;;;;;5055717;28;20210;-63
2022/04/04 05:01:09;;;;;;;19.67;15.23;;;2.50;99.90;;;;;;5056085;28;20202;-63
2022/04/04 05:03:35;;;;;;;21.07;14.93;;;2.40;99.90;;;;;;5055234;28;20177;-63
2022/04/04 05:06:00;;;;;;;21.23;15.87;;;2.40;99.90;;;;;;5056536;28;20227;-62
2022/04/04 05:08:26;;;;;;;19.77;15.43;;;2.40;99.90;;;;;;5056259;28;20194;-62
2022/04/04 05:10:52;;;;;;;18.40;15.23;;;2.40;99.90;;;;;;5055986;28;20553;-63
2022/04/04 05:13:18;;;;;;;19.60;15.43;;;2.40;99.90;;;;;;5055790;28;20174;-62
2022/04/04 05:15:44;;;;;;;20.63;14.57;;;2.40;99.90;;;;;;5056137;28;20177;-62
2022/04/04 05:18:10;;;;;;;18.40;15.03;;;2.40;99.90;;;;;;5055933;28;20561;-64
2022/04/04 05:20:36;;;;;;;22.60;15.77;;;2.40;99.90;;;;;;5055818;28;20255;-63
2022/04/04 05:23:01;;;;;;;19.53;15.63;;;2.40;99.90;;;;;;5056044;28;20210;-62
2022/04/04 05:25:28;;;;;;;21.10;16.30;;;2.30;99.90;;;;;;5055699;28;20182;-63
2022/04/04 05:27:56;;;;;;;19.83;15.63;;;2.30;99.90;;;;;;5055638;28;20744;-63
2022/04/04 05:30:23;;;;;;;20.30;16.00;;;2.30;99.90;;;;;;5055747;28;20683;-62
2022/04/04 05:32:49;;;;;;;22.83;15.77;;;2.40;99.90;;;;;;5055634;28;20193;-63
2022/04/04 05:35:16;;;;;;;23.87;15.33;;;2.30;99.90;;;;;;5054310;28;20669;-63
2022/04/04 05:37:42;;;;;;;22.83;15.20;;;2.40;99.90;;;;;;5055595;28;20199;-63
2022/04/04 05:40:09;;;;;;;20.40;15.90;;;2.40;99.90;;;;;;5055547;28;20179;-63
2022/04/04 05:42:35;;;;;;;16.33;14.60;;;2.40;99.90;;;;;;5055736;28;20174;-62
2022/04/04 05:45:00;;;;;;;23.90;16.73;;;2.40;99.90;;;;;;5055705;28;20171;-62
2022/04/04 05:47:27;;;;;;;21.07;14.67;;;2.40;99.90;;;;;;5056007;28;20222;-62
2022/04/04 05:49:53;;;;;;;21.13;15.80;;;2.40;99.90;;;;;;5055986;28;20185;-62
2022/04/04 05:52:23;;;;;;;19.37;15.23;;;2.40;99.90;;;;;;5055559;28;20195;-62
2022/04/04 05:54:57;;;;;;;21.37;15.13;;;2.50;99.90;;;;;;5055439;28;20182;-62
2022/04/04 05:57:31;;;;;;;19.03;15.33;;;2.50;99.90;;;;;;5055085;28;20202;-62
2022/04/04 05:59:57;;;;;;;20.03;15.30;;;2.50;99.90;;;;;;5054668;28;20205;-62
2022/04/04 06:02:24;;;;;;;18.03;14.07;;;2.60;99.90;;;;;;5053726;28;20182;-62
2022/04/04 06:04:50;;;;;;;19.27;14.83;;;2.60;99.90;;;;;;5054958;28;20171;-62
2022/04/04 06:07:17;;;;;;;19.87;15.33;;;2.60;99.90;;;;;;5054501;28;20198;-63
2022/04/04 06:09:43;;;;;;;18.90;14.20;;;2.70;99.90;;;;;;5055004;28;20221;-62
2022/04/04 06:12:09;;;;;;;19.47;13.77;;;2.80;99.90;;;;;;5055126;28;20175;-63
2022/04/04 06:14:35;;;;;;;18.70;13.93;;;2.80;99.90;;;;;;5053308;28;20722;-62
2022/04/04 06:17:05;;;;;;;19.90;14.53;;;2.90;99.90;;;;;;5054686;28;20194;-62
2022/04/04 06:19:31;;;;;;;16.57;14.03;;;3.00;99.90;;;;;;5054877;28;20259;-62
2022/04/04 06:21:58;;;;;;;18.53;13.77;;;3.00;99.90;;;;;;5054793;28;20572;-62
2022/04/04 06:24:24;;;;;;;17.80;13.77;;;3.00;99.90;;;;;;5054837;28;20233;-63
2022/04/04 06:26:50;;;;;;;17.53;13.77;;;3.10;99.90;;;;;;5053085;28;20566;-63
2022/04/04 06:29:15;;;;;;;18.93;13.93;;;3.20;99.90;;;;;;5052937;28;20274;-62
2022/04/04 06:31:41;;;;;;;19.83;14.23;;;3.20;99.90;;;;;;5053177;28;20186;-62
2022/04/04 06:34:09;;;;;;;17.63;13.37;;;3.30;99.90;;;;;;5054650;28;20183;-62
2022/04/04 06:36:37;;;;;;;18.93;13.07;;;3.40;99.90;;;;;;5054261;28;20214;-62
2022/04/04 06:39:03;;;;;;;20.63;12.87;;;3.40;99.90;;;;;;5054051;28;20228;-62
2022/04/04 06:41:31;;;;;;;16.83;13.37;;;3.50;99.90;;;;;;5054170;28;20627;-63
2022/04/04 06:43:57;;;;;;;17.30;13.47;;;3.60;99.90;;;;;;5054120;28;20258;-62
2022/04/04 06:46:23;;;;;;;18.17;13.57;;;3.70;99.90;;;;;;5054170;28;20197;-62
2022/04/04 06:48:51;;;;;;;16.50;12.43;;;3.70;99.90;;;;;;5053990;28;20226;-62
2022/04/04 06:51:19;;;;;;;18.00;11.77;;;3.80;99.90;;;;;;5054593;28;20177;-62
2022/04/04 06:53:46;;;;;;;12.50;11.03;;;3.80;99.90;;;;;;5054053;28;20167;-62
2022/04/04 06:56:12;;;;;;;12.63;11.30;;;3.90;99.90;;;;;;5053859;28;20265;-62
2022/04/04 06:58:38;;;;;;;16.90;12.00;;;3.90;99.90;;;;;;5053535;28;20209;-62
2022/04/04 07:01:04;;;;;;;12.23;10.53;;;3.90;99.90;;;;;;5053964;28;20175;-62
2022/04/04 07:03:30;;;;;;;15.27;11.20;;;3.90;99.90;;;;;;5054184;28;20540;-61
2022/04/04 07:05:55;;;;;;;13.70;11.17;;;4.00;99.90;;;;;;5053788;28;20170;-61
2022/04/04 07:08:21;;;;;;;11.90;10.63;;;4.10;99.90;;;;;;5053802;28;20209;-61
2022/04/04 07:10:48;;;;;;;15.00;10.37;;;4.10;99.90;;;;;;5052399;28;20201;-62
2022/04/04 07:13:15;;;;;;;13.10;11.73;;;4.20;99.90;;;;;;5053618;28;20709;-62
2022/04/04 07:15:41;;;;;;;13.53;10.60;;;4.30;99.90;;;;;;5053653;28;20534;-64
2022/04/04 07:18:07;;;;;;;16.20;11.27;;;4.40;99.90;;;;;;5052690;28;20213;-62
2022/04/04 07:20:34;;;;;;;12.20;10.90;;;4.40;99.90;;;;;;5053934;28;20600;-63
2022/04/04 07:23:00;;;;;;;12.63;10.23;;;4.40;99.90;;;;;;5053953;28;20202;-62
2022/04/04 07:25:28;;;;;;;11.27;10.07;;;4.40;99.90;;;;;;5053714;28;20213;-62
2022/04/04 07:27:54;;;;;;;16.67;11.10;;;4.40;99.90;;;;;;5053407;28;20201;-62
2022/04/04 07:30:23;;;;;;;12.37;10.60;;;4.50;99.90;;;;;;5053243;28;20552;-62
2022/04/04 07:32:50;;;;;;;14.67;10.87;;;4.60;99.90;;;;;;5053687;28;20227;-62
2022/04/04 07:35:18;;;;;;;11.60;10.40;;;4.70;99.90;;;;;;5053321;28;20185;-61
2022/04/04 07:37:46;;;;;;;13.27;10.77;;;4.80;99.90;;;;;;5053723;28;20564;-62
2022/04/04 07:40:15;;;;;;;12.60;11.03;;;5.00;99.90;;;;;;5053350;28;20182;-62
2022/04/04 07:42:42;;;;;;;13.00;10.07;;;5.30;99.90;;;;;;5053390;28;20167;-62
2022/04/04 07:45:10;;;;;;;13.00;10.13;;;5.50;99.90;;;;;;5053145;28;20170;-62
2022/04/04 07:47:37;;;;;;;11.63;10.40;;;5.50;99.90;;;;;;5053652;28;20548;-60
2022/04/04 07:50:04;;;;;;;14.17;10.43;;;5.40;99.90;;;;;;5052481;28;20185;-61
2022/04/04 07:52:30;;;;;;;12.67;10.63;;;5.40;99.90;;;;;;5053761;28;20190;-60
2022/04/04 07:54:56;;;;;;;17.37;11.80;;;5.30;99.90;;;;;;5054071;28;20169;-61
2022/04/04 07:57:22;;;;;;;12.43;10.63;;;5.20;99.90;;;;;;5054363;28;20210;-62
2022/04/04 07:59:50;;;;;;;12.43;10.70;;;5.20;99.90;;;;;;5053277;28;20225;-62
2022/04/04 08:02:17;;;;;;;14.47;11.23;;;5.20;99.90;;;;;;5053389;28;20619;-62
2022/04/04 08:04:43;;;;;;;13.77;10.57;;;5.30;99.90;;;;;;5053332;28;20170;-63
2022/04/04 08:07:08;;;;;;;12.83;10.37;;;5.40;99.90;;;;;;5054230;28;20220;-62
2022/04/04 08:09:34;;;;;;;15.13;10.37;;;5.60;99.90;;;;;;5053021;28;20257;-61
2022/04/04 08:12:00;;;;;;;11.60;10.10;;;5.70;99.90;;;;;;5053275;28;20647;-61
2022/04/04 08:14:25;;;;;;;15.47;11.43;;;5.90;99.90;;;;;;5052657;28;20588;-62
2022/04/04 08:16:51;;;;;;;14.87;10.97;;;6.00;99.90;;;;;;5053187;28;20182;-62
2022/04/04 08:19:18;;;;;;;13.17;10.90;;;6.00;99.90;;;;;;5052953;28;20213;-61
2022/04/04 08:21:44;;;;;;;12.53;10.90;;;5.90;99.90;;;;;;5053300;28;20167;-66
2022/04/04 08:24:12;;;;;;;13.40;10.87;;;5.80;99.90;;;;;;5053524;28;20263;-61
2022/04/04 08:26:39;;;;;;;13.27;10.83;;;5.80;99.90;;;;;;5052850;28;20203;-61
2022/04/04 08:29:08;;;;;;;12.47;10.57;;;5.80;99.90;;;;;;5052592;28;20179;-61
2022/04/04 08:31:34;;;;;;;11.57;10.03;;;5.80;99.90;;;;;;5056790;28;20182;-62
2022/04/04 08:34:00;;;;;;;14.13;10.50;;;6.00;99.90;;;;;;5056781;28;20170;-62
2022/04/04 08:36:25;;;;;;;14.03;10.20;;;6.00;99.90;;;;;;5056979;28;20181;-62
2022/04/04 08:38:51;;;;;;;11.27;9.83;;;6.00;99.90;;;;;;5056786;28;20214;-62
2022/04/04 08:41:18;;;;;;;14.77;10.13;;;6.00;99.90;;;;;;5056705;28;20170;-62
2022/04/04 08:43:44;;;;;;;12.27;10.07;;;5.90;99.90;;;;;;5056189;28;20175;-61
2022/04/04 08:46:10;;;;;;;12.90;10.33;;;5.90;99.90;;;;;;5056772;28;20565;-62
2022/04/04 08:48:39;;;;;;;12.37;10.70;;;5.90;99.90;;;;;;5056561;28;20249;-62
2022/04/04 08:51:09;;;;;;;12.67;9.57;;;6.00;99.90;;;;;;5056289;28;20213;-61
2022/04/04 08:53:39;;;;;;;14.47;10.17;;;6.10;99.90;;;;;;5056042;28;20233;-61
2022/04/04 08:56:06;;;;;;;14.37;9.90;;;6.30;99.90;;;;;;5056185;28;20209;-61
2022/04/04 08:58:33;;;;;;;11.83;10.17;;;6.30;99.90;;;;;;5056096;28;20201;-61
2022/04/04 09:00:59;;;;;;;12.00;9.70;;;6.50;99.90;;;;;;5056157;28;20167;-61
2022/04/04 09:03:33;;;;;;;12.57;9.53;;;6.50;99.90;;;;;;5056438;28;20246;-61
2022/04/04 09:06:01;;;;;;;11.57;10.37;;;6.50;99.90;;;;;;5056303;28;20177;-62
2022/04/04 09:08:30;;;;;;;13.97;9.57;;;6.40;99.90;;;;;;5055977;28;20589;-62
2022/04/04 09:11:01;;;;;;;10.77;9.60;;;6.30;99.90;;;;;;5055990;28;20186;-62
2022/04/04 09:13:29;;;;;;;13.50;9.23;;;6.30;99.90;;;;;;5055707;28;20189;-61
2022/04/04 09:16:03;;;;;;;11.93;9.47;;;6.20;99.90;;;;;;5056684;28;20625;-62
2022/04/04 09:18:42;;;;;;;11.37;9.80;;;6.20;99.90;;;;;;5055827;28;20573;-63
2022/04/04 09:21:18;;;;;;;13.60;9.10;;;6.20;99.90;;;;;;5056188;28;20162;-62
2022/04/04 09:23:47;;;;;;;11.97;9.37;;;6.20;99.90;;;;;;5056126;28;20242;-62
2022/04/04 09:26:41;;;;;;;13.63;9.63;;;6.20;99.90;;;;;;5055656;28;20186;-61
2022/04/04 09:29:16;;;;;;;12.73;10.03;;;6.10;99.90;;;;;;5055562;28;20188;-62
2022/04/04 09:32:05;;;;;;;10.47;9.00;;;6.20;99.90;;;;;;5056136;28;20159;-61
2022/04/04 09:34:49;;;;;;;14.13;9.43;;;6.20;99.90;;;;;;5055993;28;20159;-62
2022/04/04 09:37:15;;;;;;;11.60;9.07;;;6.20;99.90;;;;;;5055426;28;20232;-62
2022/04/04 09:39:41;;;;;;;12.93;9.30;;;6.10;99.90;;;;;;5055444;28;20647;-63
2022/04/04 09:42:19;;;;;;;10.03;9.03;;;6.20;99.90;;;;;;5054397;28;20223;-61
2022/04/04 09:45:05;;;;;;;11.97;8.70;;;6.30;99.90;;;;;;5055002;28;20178;-62
2022/04/04 09:47:56;;;;;;;12.77;9.10;;;6.50;99.90;;;;;;5055472;28;20647;-61
2022/04/04 09:50:40;;;;;;;10.00;8.43;;;6.40;99.90;;;;;;5055242;28;20574;-62
2022/04/04 09:53:09;;;;;;;13.17;8.80;;;6.40;99.90;;;;;;5055308;28;20155;-62
2022/04/04 09:55:39;;;;;;;9.57;8.57;;;6.40;99.90;;;;;;5055121;28;20254;-61
2022/04/04 09:58:07;;;;;;;10.73;8.53;;;6.40;99.90;;;;;;5055154;28;20194;-61
2022/04/04 10:00:38;;;;;;;13.17;8.70;;;6.40;99.90;;;;;;5054756;28;20174;-62
2022/04/04 10:03:07;;;;;;;10.00;8.63;;;6.40;99.90;;;;;;5054897;28;20195;-61
2022/04/04 10:05:34;;;;;;;11.80;8.93;;;6.40;99.90;;;;;;5054875;28;20221;-62
2022/04/04 10:08:01;;;;;;;10.90;9.07;;;6.50;99.90;;;;;;5054835;28;20194;-61
2022/04/04 10:10:29;;;;;;;8.83;7.77;;;6.50;99.90;;;;;;5054853;28;20659;-61
2022/04/04 10:12:55;;;;;;;9.33;8.43;;;6.50;99.90;;;;;;5053524;28;20174;-61
2022/04/04 10:15:22;;;;;;;12.07;9.33;;;6.50;99.90;;;;;;5054655;28;20190;-61
2022/04/04 10:17:50;;;;;;;9.87;8.80;;;6.50;99.90;;;;;;5054882;28;20210;-61
2022/04/04 10:20:16;;;;;;;10.17;8.57;;;6.60;99.90;;;;;;5054698;28;20200;-61
2022/04/04 10:22:43;;;;;;;9.30;8.40;;;6.50;99.90;;;;;;5053285;28;20296;-61
2022/04/04 10:25:11;;;;;;;12.70;9.00;;;6.30;99.90;;;;;;5054760;28;20167;-61
2022/04/04 10:27:37;;;;;;;11.30;9.70;;;6.20;99.90;;;;;;5054419;28;20190;-61
2022/04/04 10:30:08;;;;;;;11.80;8.97;;;6.20;99.90;;;;;;5054169;28;20184;-62
2022/04/04 10:32:34;;;;;;;10.57;8.97;;;6.10;99.90;;;;;;5054404;28;20234;-61
2022/04/04 10:35:10;;;;;;;12.67;9.97;;;6.00;99.90;;;;;;5054410;28;20181;-61
2022/04/04 10:37:44;;;;;;;11.43;9.93;;;6.20;99.90;;;;;;5054422;28;20205;-62
2022/04/04 10:40:21;;;;;;;13.50;10.30;;;6.00;99.90;;;;;;5054238;28;20198;-61
2022/04/04 10:43:00;;;;;;;15.57;10.60;;;5.80;99.90;;;;;;5052918;28;20175;-61
2022/04/04 10:45:28;;;;;;;13.47;10.07;;;5.70;99.90;;;;;;5054374;28;20163;-61
2022/04/04 10:48:06;;;;;;;15.53;11.00;;;5.60;99.90;;;;;;5054231;28;20261;-62
2022/04/04 10:50:33;;;;;;;12.43;10.87;;;5.60;99.90;;;;;;5054460;28;20159;-62
2022/04/04 10:53:04;;;;;;;12.43;11.10;;;5.70;99.90;;;;;;5054183;28;20557;-61
2022/04/04 10:55:38;;;;;;;12.17;10.90;;;5.60;99.90;;;;;;5054146;28;20182;-61
2022/04/04 10:58:10;;;;;;;12.70;11.40;;;5.50;99.90;;;;;;5052699;28;20195;-62
2022/04/04 11:00:56;;;;;;;18.83;12.10;;;5.30;99.90;;;;;;5053783;28;20169;-62
2022/04/04 11:03:32;;;;;;;16.03;11.93;;;5.20;99.90;;;;;;5053928;28;20202;-61
2022/04/04 11:09:16;;;;;;;15.33;12.20;;;5.00;99.90;;;;;;5054357;28;20209;-66
2022/04/04 11:11:47;;;;;;;19.67;13.30;;;4.80;99.90;;;;;;5054622;28;20398;-63
2022/04/04 11:14:14;;;;;;;18.63;13.07;;;4.70;99.90;;;;;;5054437;28;20229;-62
2022/04/04 11:20:03;;;;;;;18.40;13.30;;;4.60;99.90;;;;;;5053834;28;20581;-63
2022/04/04 11:22:33;;;;;;;17.10;14.17;;;4.60;99.90;;;;;;5054026;28;20198;-61
2022/04/04 11:25:05;;;;;;;21.20;14.73;;;4.50;99.90;;;;;;5054279;28;20166;-62
2022/04/04 11:27:36;;;;;;;20.63;15.13;;;4.40;99.90;;;;;;5054449;28;20190;-60
2022/04/04 11:30:09;;;;;;;17.70;15.30;;;4.30;99.90;;;;;;5054000;28;20750;-63
2022/04/04 11:32:38;;;;;;;20.30;15.90;;;4.20;99.90;;;;;;5054488;28;20170;-61
2022/04/04 11:35:09;;;;;;;17.30;14.57;;;4.20;99.90;;;;;;5055506;28;20244;-62
2022/04/04 11:37:43;;;;;;;21.87;15.60;;;4.10;99.90;;;;;;5054406;28;20190;-62
2022/04/04 11:40:14;;;;;;;18.70;15.43;;;4.10;99.90;;;;;;5053195;28;20675;-61
2022/04/04 11:42:51;;;;;;;21.23;16.07;;;4.10;99.90;;;;;;5053647;28;20566;-62
2022/04/04 11:45:22;;;;;;;21.50;15.47;;;4.10;99.90;;;;;;5053433;28;20635;-61
2022/04/04 11:47:56;;;;;;;19.63;14.93;;;4.10;99.90;;;;;;5053296;28;20197;-61
2022/04/04 11:50:26;;;;;;;20.53;16.00;;;4.10;99.90;;;;;;5053193;28;20166;-62
2022/04/04 11:53:02;;;;;;;18.37;14.93;;;4.10;99.90;;;;;;5054114;28;20635;-61
2022/04/04 11:55:29;;;;;;;21.03;16.27;;;4.00;99.90;;;;;;5056686;28;20184;-62
2022/04/04 11:58:00;;;;;;;17.77;14.53;;;4.00;99.90;;;;;;5073166;28;20225;-62
2022/04/04 12:00:30;;;;;;;17.77;15.60;;;3.90;99.90;;;;;;5072960;28;20172;-61
2022/04/04 12:03:01;;;;;;;21.83;15.83;;;4.00;99.90;;;;;;5073134;28;20182;-62
2022/04/04 12:05:28;;;;;;;21.80;15.67;;;4.00;99.90;;;;;;5075635;28;20687;-61
2022/04/04 12:07:54;;;;;;;24.97;17.17;;;4.10;99.90;;;;;;5077228;28;20268;-62
2022/04/04 12:10:31;;;;;;;22.07;17.00;;;4.10;99.90;;;;;;5076915;28;20272;-62
2022/04/04 12:13:02;;;;;;;19.27;16.97;;;4.20;99.90;;;;;;5075834;28;20181;-61
2022/04/04 12:15:30;;;;;;;24.37;17.17;;;4.20;99.90;;;;;;5077090;28;20157;-62
2022/04/04 12:17:58;;;;;;;21.47;16.97;;;4.30;99.90;;;;;;5075897;28;20232;-61
2022/04/04 12:20:24;;;;;;;20.13;17.43;;;4.30;99.90;;;;;;5075927;28;20174;-62
2022/04/04 12:25:35;;;;;;;19.80;15.77;;;4.20;99.90;;;;;;5076731;28;20204;-61
2022/04/04 12:28:02;;;;;;;18.63;16.23;;;4.20;99.90;;;;;;5076677;28;20185;-61
2022/04/04 12:30:29;;;;;;;19.80;16.33;;;4.10;99.90;;;;;;5076596;28;20158;-61
2022/04/04 12:33:09;;;;;;;23.53;18.30;;;4.20;99.90;;;;;;5076610;28;20543;-61
2022/04/04 12:35:45;;;;;;;21.37;17.43;;;4.20;99.90;;;;;;5076630;28;20182;-62
2022/04/04 12:38:26;;;;;;;20.90;17.47;;;4.20;99.90;;;;;;5075143;28;20194;-62
2022/04/04 12:41:10;;;;;;;24.40;17.87;;;4.20;99.90;;;;;;5076835;28;20158;-62
2022/04/04 12:43:38;;;;;;;21.60;17.67;;;4.20;99.90;;;;;;5076471;28;20166;-61
2022/04/04 12:46:06;;;;;;;26.40;19.13;;;4.20;99.90;;;;;;5076199;28;20166;-61
2022/04/04 12:48:40;;;;;;;21.73;18.70;;;4.10;99.90;;;;;;5076341;28;20247;-62
2022/04/04 12:51:23;;;;;;;22.17;19.00;;;4.10;99.90;;;;;;5076367;28;20249;-62
2022/04/04 12:53:52;;;;;;;23.80;19.07;;;4.00;99.90;;;;;;5076860;28;20257;-62
2022/04/04 12:56:18;;;;;;;22.27;19.57;;;4.00;99.90;;;;;;5076098;28;20227;-61
2022/04/04 12:59:00;;;;;;;24.97;19.30;;;4.00;99.90;;;;;;5076049;28;20205;-61